sensor_id;sensor_type;location;lat;lon;timestamp;temperature;humidity
19003;DHT22;9634;51.040;13.794;2022-10-03T00:02:02;11.20;99.90
19003;DHT22;9634;51.040;13.794;2022-10-03T00:07:22;11.40;99.90
19003;DHT22;9634;51.040;13.794;2022-10-03T00:12:44;11.60;99.90
19003;DHT22;9634;51.040;13.794;2022-10-03T00:17:56;11.70;99.90
19003;DHT22;9634;51.040;13.794;2022-10-03T00:23:07;11.70;99.90
19003;DHT22;9634;51.040;13.794;2022-10-03T00:28:39;11.60;99.90
19003;DHT22;9634;51.040;13.794;2022-10-03T00:33:51;11.60;99.90
19003;DHT22;9634;51.040;13.794;2022-10-03T00:39:19;11.40;99.90
19003;DHT22;9634;51.040;13.794;2022-10-03T00:55:51;11.30;99.90
19003;DHT22;9634;51.040;13.794;2022-10-03T01:01:05;11.40;99.90
19003;DHT22;9634;51.040;13.794;2022-10-03T01:06:29;11.60;99.90
19003;DHT22;9634;51.040;13.794;2022-10-03T01:11:51;11.70;99.90
19003;DHT22;9634;51.040;13.794;2022-10-03T01:17:04;11.70;99.90
19003;DHT22;9634;51.040;13.794;2022-10-03T01:22:35;11.80;99.90
19003;DHT22;9634;51.040;13.794;2022-10-03T01:27:48;11.90;99.90
19003;DHT22;9634;51.040;13.794;2022-10-03T01:33:27;11.90;99.90
19003;DHT22;9634;51.040;13.794;2022-10-03T01:38:35;12.00;99.90
19003;DHT22;9634;51.040;13.794;2022-10-03T01:43:46;11.90;99.90
19003;DHT22;9634;51.040;13.794;2022-10-03T01:48:59;11.80;99.90
19003;DHT22;9634;51.040;13.794;2022-10-03T01:54:11;11.70;99.90
19003;DHT22;9634;51.040;13.794;2022-10-03T01:59:21;11.70;99.90
19003;DHT22;9634;51.040;13.794;2022-10-03T02:04:38;11.80;99.90
19003;DHT22;9634;51.040;13.794;2022-10-03T02:09:49;11.90;99.90
19003;DHT22;9634;51.040;13.794;2022-10-03T02:14:57;11.80;99.90
19003;DHT22;9634;51.040;13.794;2022-10-03T02:20:07;11.80;99.90
19003;DHT22;9634;51.040;13.794;2022-10-03T02:25:35;11.90;99.90
19003;DHT22;9634;51.040;13.794;2022-10-03T02:47:38;11.70;99.90
19003;DHT22;9634;51.040;13.794;2022-10-03T02:58:54;11.80;99.90
19003;DHT22;9634;51.040;13.794;2022-10-03T03:04:21;11.80;99.90
19003;DHT22;9634;51.040;13.794;2022-10-03T03:09:56;11.80;99.90
19003;DHT22;9634;51.040;13.794;2022-10-03T03:15:35;11.90;99.90
19003;DHT22;9634;51.040;13.794;2022-10-03T03:20:55;11.90;99.90
19003;DHT22;9634;51.040;13.794;2022-10-03T03:26:17;11.90;99.90
19003;DHT22;9634;51.040;13.794;2022-10-03T03:31:30;11.90;99.90
19003;DHT22;9634;51.040;13.794;2022-10-03T03:36:38;11.90;99.90
19003;DHT22;9634;51.040;13.794;2022-10-03T03:41:55;11.90;99.90
19003;DHT22;9634;51.040;13.794;2022-10-03T03:47:15;11.90;99.90
19003;DHT22;9634;51.040;13.794;2022-10-03T03:52:31;11.90;99.90
19003;DHT22;9634;51.040;13.794;2022-10-03T03:57:46;11.90;99.90
19003;DHT22;9634;51.040;13.794;2022-10-03T04:03:11;11.90;99.90
19003;DHT22;9634;51.040;13.794;2022-10-03T04:08:32;11.80;99.90
19003;DHT22;9634;51.040;13.794;2022-10-03T04:14:13;11.90;99.90
19003;DHT22;9634;51.040;13.794;2022-10-03T04:19:26;11.90;99.90
19003;DHT22;9634;51.040;13.794;2022-10-03T04:30:11;11.80;99.90
19003;DHT22;9634;51.040;13.794;2022-10-03T04:35:47;11.90;99.90
19003;DHT22;9634;51.040;13.794;2022-10-03T04:40:58;11.90;99.90
19003;DHT22;9634;51.040;13.794;2022-10-03T04:46:22;11.90;99.90
19003;DHT22;9634;51.040;13.794;2022-10-03T04:51:39;11.80;99.90
19003;DHT22;9634;51.040;13.794;2022-10-03T04:56:49;11.80;99.90
19003;DHT22;9634;51.040;13.794;2022-10-03T05:01:56;11.80;99.90
19003;DHT22;9634;51.040;13.794;2022-10-03T05:07:10;11.80;99.90
19003;DHT22;9634;51.040;13.794;2022-10-03T05:12:18;11.70;99.90
19003;DHT22;9634;51.040;13.794;2022-10-03T05:17:34;11.80;99.90
19003;DHT22;9634;51.040;13.794;2022-10-03T05:22:45;11.80;99.90
19003;DHT22;9634;51.040;13.794;2022-10-03T05:27:57;11.80;99.90
19003;DHT22;9634;51.040;13.794;2022-10-03T05:33:06;11.70;99.90
19003;DHT22;9634;51.040;13.794;2022-10-03T05:38:49;11.70;99.90
19003;DHT22;9634;51.040;13.794;2022-10-03T05:44:01;11.70;99.90
19003;DHT22;9634;51.040;13.794;2022-10-03T05:49:26;11.70;99.90
19003;DHT22;9634;51.040;13.794;2022-10-03T05:54:48;11.70;99.90
19003;DHT22;9634;51.040;13.794;2022-10-03T06:00:04;11.70;99.90
19003;DHT22;9634;51.040;13.794;2022-10-03T06:05:20;11.70;99.90
19003;DHT22;9634;51.040;13.794;2022-10-03T06:10:44;11.80;99.90
19003;DHT22;9634;51.040;13.794;2022-10-03T06:15:56;11.90;99.90
19003;DHT22;9634;51.040;13.794;2022-10-03T06:21:32;12.00;99.90
19003;DHT22;9634;51.040;13.794;2022-10-03T06:38:13;12.30;99.90
19003;DHT22;9634;51.040;13.794;2022-10-03T06:43:42;12.40;99.90
19003;DHT22;9634;51.040;13.794;2022-10-03T07:00:07;12.90;99.90
19003;DHT22;9634;51.040;13.794;2022-10-03T07:05:37;13.10;99.90
19003;DHT22;9634;51.040;13.794;2022-10-03T07:10:56;13.20;99.90
19003;DHT22;9634;51.040;13.794;2022-10-03T07:16:14;13.20;99.90
19003;DHT22;9634;51.040;13.794;2022-10-03T07:27:18;13.20;99.90
19003;DHT22;9634;51.040;13.794;2022-10-03T07:32:55;12.90;99.90
19003;DHT22;9634;51.040;13.794;2022-10-03T07:44:14;13.00;99.90
19003;DHT22;9634;51.040;13.794;2022-10-03T07:49:49;12.60;99.90
19003;DHT22;9634;51.040;13.794;2022-10-03T07:55:13;12.50;99.90
19003;DHT22;9634;51.040;13.794;2022-10-03T08:00:21;12.90;99.90
19003;DHT22;9634;51.040;13.794;2022-10-03T08:05:39;13.30;99.90
19003;DHT22;9634;51.040;13.794;2022-10-03T08:11:12;13.50;99.90
19003;DHT22;9634;51.040;13.794;2022-10-03T08:16:46;13.50;99.90
19003;DHT22;9634;51.040;13.794;2022-10-03T08:22:04;13.40;99.90
19003;DHT22;9634;51.040;13.794;2022-10-03T08:32:56;14.00;99.90
19003;DHT22;9634;51.040;13.794;2022-10-03T08:49:26;14.70;99.90
19003;DHT22;9634;51.040;13.794;2022-10-03T09:00:22;15.30;99.90
19003;DHT22;9634;51.040;13.794;2022-10-03T09:17:02;14.60;99.90
19003;DHT22;9634;51.040;13.794;2022-10-03T09:22:45;14.80;99.90
19003;DHT22;9634;51.040;13.794;2022-10-03T09:34:24;16.00;99.90
19003;DHT22;9634;51.040;13.794;2022-10-03T09:40:06;17.50;99.90
19003;DHT22;9634;51.040;13.794;2022-10-03T09:45:31;16.30;99.90
19003;DHT22;9634;51.040;13.794;2022-10-03T09:51:02;19.10;99.90
19003;DHT22;9634;51.040;13.794;2022-10-03T09:56:40;20.70;99.90
19003;DHT22;9634;51.040;13.794;2022-10-03T10:01:52;22.30;81.60
19003;DHT22;9634;51.040;13.794;2022-10-03T10:13:11;20.50;80.30
19003;DHT22;9634;51.040;13.794;2022-10-03T10:24:03;17.60;99.60
19003;DHT22;9634;51.040;13.794;2022-10-03T10:29:30;16.40;99.90
19003;DHT22;9634;51.040;13.794;2022-10-03T10:46:39;16.20;99.90
19003;DHT22;9634;51.040;13.794;2022-10-03T11:04:01;18.80;90.50
19003;DHT22;9634;51.040;13.794;2022-10-03T11:09:33;20.60;90.50
19003;DHT22;9634;51.040;13.794;2022-10-03T11:15:23;19.20;90.20
19003;DHT22;9634;51.040;13.794;2022-10-03T11:21:06;18.00;99.90
19003;DHT22;9634;51.040;13.794;2022-10-03T11:38:02;18.20;98.10
19003;DHT22;9634;51.040;13.794;2022-10-03T11:49:00;17.90;99.90
19003;DHT22;9634;51.040;13.794;2022-10-03T11:54:14;17.90;99.90
19003;DHT22;9634;51.040;13.794;2022-10-03T11:59:43;17.20;99.90
19003;DHT22;9634;51.040;13.794;2022-10-03T12:04:55;16.50;99.90
19003;DHT22;9634;51.040;13.794;2022-10-03T12:10:07;16.50;99.90
19003;DHT22;9634;51.040;13.794;2022-10-03T12:15:29;17.20;99.90
19003;DHT22;9634;51.040;13.794;2022-10-03T12:26:15;17.50;99.90
19003;DHT22;9634;51.040;13.794;2022-10-03T12:31:21;17.40;99.90
19003;DHT22;9634;51.040;13.794;2022-10-03T12:36:29;17.00;99.90
19003;DHT22;9634;51.040;13.794;2022-10-03T12:41:55;17.20;99.90
19003;DHT22;9634;51.040;13.794;2022-10-03T12:47:34;17.60;99.90
19003;DHT22;9634;51.040;13.794;2022-10-03T12:52:48;16.70;99.90
19003;DHT22;9634;51.040;13.794;2022-10-03T12:58:06;16.30;99.90
19003;DHT22;9634;51.040;13.794;2022-10-03T13:03:35;16.30;99.90
19003;DHT22;9634;51.040;13.794;2022-10-03T13:09:03;15.90;99.90
19003;DHT22;9634;51.040;13.794;2022-10-03T13:14:29;15.70;99.90
19003;DHT22;9634;51.040;13.794;2022-10-03T13:19:52;15.70;99.90
19003;DHT22;9634;51.040;13.794;2022-10-03T13:36:08;16.10;99.90
19003;DHT22;9634;51.040;13.794;2022-10-03T13:41:40;16.30;99.90
19003;DHT22;9634;51.040;13.794;2022-10-03T13:47:07;17.80;99.90
19003;DHT22;9634;51.040;13.794;2022-10-03T13:52:43;20.80;97.60
19003;DHT22;9634;51.040;13.794;2022-10-03T13:57:57;19.80;98.20
19003;DHT22;9634;51.040;13.794;2022-10-03T14:03:15;17.90;99.90
19003;DHT22;9634;51.040;13.794;2022-10-03T14:08:31;17.10;99.90
19003;DHT22;9634;51.040;13.794;2022-10-03T14:13:49;16.50;99.90
19003;DHT22;9634;51.040;13.794;2022-10-03T14:19:14;16.10;99.90
19003;DHT22;9634;51.040;13.794;2022-10-03T14:24:35;15.50;99.90
19003;DHT22;9634;51.040;13.794;2022-10-03T14:35:35;15.40;99.90
19003;DHT22;9634;51.040;13.794;2022-10-03T14:40:43;15.00;99.90
19003;DHT22;9634;51.040;13.794;2022-10-03T14:45:57;15.10;99.90
19003;DHT22;9634;51.040;13.794;2022-10-03T14:51:24;15.40;99.90
19003;DHT22;9634;51.040;13.794;2022-10-03T14:56:31;15.60;99.90
19003;DHT22;9634;51.040;13.794;2022-10-03T15:01:48;16.20;99.90
19003;DHT22;9634;51.040;13.794;2022-10-03T15:07:04;16.40;99.90
19003;DHT22;9634;51.040;13.794;2022-10-03T15:12:15;16.10;99.90
19003;DHT22;9634;51.040;13.794;2022-10-03T15:17:25;15.80;99.90
19003;DHT22;9634;51.040;13.794;2022-10-03T15:22:34;15.50;99.90
19003;DHT22;9634;51.040;13.794;2022-10-03T15:27:40;15.30;99.90
19003;DHT22;9634;51.040;13.794;2022-10-03T15:32:47;15.30;99.90
19003;DHT22;9634;51.040;13.794;2022-10-03T15:38:10;15.30;99.90
19003;DHT22;9634;51.040;13.794;2022-10-03T15:43:34;15.30;99.90
19003;DHT22;9634;51.040;13.794;2022-10-03T15:48:52;15.80;99.90
19003;DHT22;9634;51.040;13.794;2022-10-03T15:53:58;17.00;99.90
19003;DHT22;9634;51.040;13.794;2022-10-03T15:59:06;16.10;99.90
19003;DHT22;9634;51.040;13.794;2022-10-03T16:04:18;15.90;99.90
19003;DHT22;9634;51.040;13.794;2022-10-03T16:09:27;15.70;99.90
19003;DHT22;9634;51.040;13.794;2022-10-03T16:14:38;15.50;99.90
19003;DHT22;9634;51.040;13.794;2022-10-03T16:19:50;15.20;99.90
19003;DHT22;9634;51.040;13.794;2022-10-03T16:25:06;14.90;99.90
19003;DHT22;9634;51.040;13.794;2022-10-03T16:30:28;14.70;99.90
19003;DHT22;9634;51.040;13.794;2022-10-03T16:35:39;14.60;99.90
19003;DHT22;9634;51.040;13.794;2022-10-03T16:40:54;14.50;99.90
19003;DHT22;9634;51.040;13.794;2022-10-03T16:45:59;14.40;99.90
19003;DHT22;9634;51.040;13.794;2022-10-03T16:51:04;14.40;99.90
19003;DHT22;9634;51.040;13.794;2022-10-03T16:56:13;14.40;99.90
19003;DHT22;9634;51.040;13.794;2022-10-03T17:01:27;14.40;99.90
19003;DHT22;9634;51.040;13.794;2022-10-03T17:06:34;14.40;99.90
19003;DHT22;9634;51.040;13.794;2022-10-03T17:11:38;14.40;99.90
19003;DHT22;9634;51.040;13.794;2022-10-03T17:16:47;14.30;99.90
19003;DHT22;9634;51.040;13.794;2022-10-03T17:21:53;14.10;99.90
19003;DHT22;9634;51.040;13.794;2022-10-03T17:27:00;13.90;99.90
19003;DHT22;9634;51.040;13.794;2022-10-03T17:32:12;13.90;99.90
19003;DHT22;9634;51.040;13.794;2022-10-03T17:37:37;14.00;99.90
19003;DHT22;9634;51.040;13.794;2022-10-03T17:42:50;14.00;99.90
19003;DHT22;9634;51.040;13.794;2022-10-03T17:47:56;14.00;99.90
19003;DHT22;9634;51.040;13.794;2022-10-03T17:53:00;14.00;99.90
19003;DHT22;9634;51.040;13.794;2022-10-03T17:58:06;14.00;99.90
19003;DHT22;9634;51.040;13.794;2022-10-03T18:03:20;14.00;99.90
19003;DHT22;9634;51.040;13.794;2022-10-03T18:08:27;14.00;99.90
19003;DHT22;9634;51.040;13.794;2022-10-03T18:13:36;14.00;99.90
19003;DHT22;9634;51.040;13.794;2022-10-03T18:19:02;14.00;99.90
19003;DHT22;9634;51.040;13.794;2022-10-03T18:24:31;14.00;99.90
19003;DHT22;9634;51.040;13.794;2022-10-03T18:29:42;14.00;99.90
19003;DHT22;9634;51.040;13.794;2022-10-03T18:34:54;14.00;99.90
19003;DHT22;9634;51.040;13.794;2022-10-03T18:40:02;14.00;99.90
19003;DHT22;9634;51.040;13.794;2022-10-03T18:45:18;13.80;99.90
19003;DHT22;9634;51.040;13.794;2022-10-03T18:50:24;13.70;99.90
19003;DHT22;9634;51.040;13.794;2022-10-03T18:55:36;13.60;99.90
19003;DHT22;9634;51.040;13.794;2022-10-03T19:00:51;13.60;99.90
19003;DHT22;9634;51.040;13.794;2022-10-03T19:05:56;13.50;99.90
19003;DHT22;9634;51.040;13.794;2022-10-03T19:11:08;13.50;99.90
19003;DHT22;9634;51.040;13.794;2022-10-03T19:16:32;13.40;99.90
19003;DHT22;9634;51.040;13.794;2022-10-03T19:21:40;13.30;99.90
19003;DHT22;9634;51.040;13.794;2022-10-03T19:26:45;13.40;99.90
19003;DHT22;9634;51.040;13.794;2022-10-03T19:31:59;13.30;99.90
19003;DHT22;9634;51.040;13.794;2022-10-03T19:37:06;13.30;99.90
19003;DHT22;9634;51.040;13.794;2022-10-03T19:42:26;13.30;99.90
19003;DHT22;9634;51.040;13.794;2022-10-03T19:47:34;13.30;99.90
19003;DHT22;9634;51.040;13.794;2022-10-03T19:52:38;13.30;99.90
19003;DHT22;9634;51.040;13.794;2022-10-03T19:57:46;13.30;99.90
19003;DHT22;9634;51.040;13.794;2022-10-03T20:02:56;13.30;99.90
19003;DHT22;9634;51.040;13.794;2022-10-03T20:08:15;13.30;99.90
19003;DHT22;9634;51.040;13.794;2022-10-03T20:13:21;13.30;99.90
19003;DHT22;9634;51.040;13.794;2022-10-03T20:18:29;13.30;99.90
19003;DHT22;9634;51.040;13.794;2022-10-03T20:23:33;13.30;99.90
19003;DHT22;9634;51.040;13.794;2022-10-03T20:28:50;13.30;99.90
19003;DHT22;9634;51.040;13.794;2022-10-03T20:33:58;13.40;99.90
19003;DHT22;9634;51.040;13.794;2022-10-03T20:39:08;13.30;99.90
19003;DHT22;9634;51.040;13.794;2022-10-03T20:44:16;13.30;99.90
19003;DHT22;9634;51.040;13.794;2022-10-03T20:49:31;13.40;99.90
19003;DHT22;9634;51.040;13.794;2022-10-03T20:54:36;13.40;99.90
19003;DHT22;9634;51.040;13.794;2022-10-03T20:59:50;13.40;99.90
19003;DHT22;9634;51.040;13.794;2022-10-03T21:04:59;13.50;99.90
